sensor_id;sensor_type;location;lat;lon;timestamp;pressure;altitude;pressure_sealevel;temperature;humidity
37291;BME280;23175;-33.706;151.094;2023-05-08T00:02:25;99781.14;;;6.76;32.48
37291;BME280;23175;-33.706;151.094;2023-05-08T00:04:54;99782.26;;;10.75;29.93
37291;BME280;23175;-33.706;151.094;2023-05-08T00:07:24;99793.18;;;9.60;30.80
37291;BME280;23175;-33.706;151.094;2023-05-08T00:09:54;99774.63;;;7.77;32.12
37291;BME280;23175;-33.706;151.094;2023-05-08T00:12:24;99787.11;;;8.50;32.17
37291;BME280;23175;-33.706;151.094;2023-05-08T00:14:54;99769.72;;;10.56;29.73
37291;BME280;23175;-33.706;151.094;2023-05-08T00:17:24;99760.07;;;7.91;33.06
37291;BME280;23175;-33.706;151.094;2023-05-08T00:19:53;99776.31;;;8.93;32.02
37291;BME280;23175;-33.706;151.094;2023-05-08T00:22:23;99770.13;;;6.18;34.45
37291;BME280;23175;-33.706;151.094;2023-05-08T00:24:53;99782.33;;;8.32;33.20
37291;BME280;23175;-33.706;151.094;2023-05-08T00:27:23;99776.17;;;8.19;32.81
37291;BME280;23175;-33.706;151.094;2023-05-08T00:29:53;99779.54;;;8.07;33.73
37291;BME280;23175;-33.706;151.094;2023-05-08T00:32:23;99780.73;;;9.25;32.54
37291;BME280;23175;-33.706;151.094;2023-05-08T00:34:53;99788.60;;;8.59;34.66
37291;BME280;23175;-33.706;151.094;2023-05-08T00:37:22;99786.87;;;8.52;33.01
37291;BME280;23175;-33.706;151.094;2023-05-08T00:39:52;99791.73;;;7.71;34.06
37291;BME280;23175;-33.706;151.094;2023-05-08T00:42:22;99788.41;;;9.18;31.97
37291;BME280;23175;-33.706;151.094;2023-05-08T00:44:52;99792.17;;;9.40;31.95
37291;BME280;23175;-33.706;151.094;2023-05-08T00:47:22;99790.60;;;10.63;30.36
37291;BME280;23175;-33.706;151.094;2023-05-08T00:49:52;99797.96;;;8.41;31.09
37291;BME280;23175;-33.706;151.094;2023-05-08T00:52:23;99798.83;;;8.49;31.59
37291;BME280;23175;-33.706;151.094;2023-05-08T00:54:54;99794.62;;;10.79;29.76
37291;BME280;23175;-33.706;151.094;2023-05-08T00:57:25;99803.98;;;8.78;31.63
37291;BME280;23175;-33.706;151.094;2023-05-08T00:59:55;99795.02;;;8.97;33.02
37291;BME280;23175;-33.706;151.094;2023-05-08T01:02:26;99791.03;;;9.38;30.29
37291;BME280;23175;-33.706;151.094;2023-05-08T01:04:56;99795.65;;;13.02;27.68
37291;BME280;23175;-33.706;151.094;2023-05-08T01:07:26;99792.78;;;13.29;26.71
37291;BME280;23175;-33.706;151.094;2023-05-08T01:09:57;99789.95;;;7.73;31.17
37291;BME280;23175;-33.706;151.094;2023-05-08T01:12:36;99792.49;;;8.76;29.63
37291;BME280;23175;-33.706;151.094;2023-05-08T01:15:17;99806.52;;;7.81;31.68
37291;BME280;23175;-33.706;151.094;2023-05-08T01:17:55;99799.05;;;9.07;32.47
37291;BME280;23175;-33.706;151.094;2023-05-08T01:20:33;99810.07;;;9.84;30.93
37291;BME280;23175;-33.706;151.094;2023-05-08T01:24:07;99809.39;;;10.74;30.67
37291;BME280;23175;-33.706;151.094;2023-05-08T01:30:08;99801.30;;;8.96;31.62
37291;BME280;23175;-33.706;151.094;2023-05-08T01:32:44;99806.83;;;11.16;30.62
37291;BME280;23175;-33.706;151.094;2023-05-08T01:35:28;99806.28;;;9.82;31.32
37291;BME280;23175;-33.706;151.094;2023-05-08T01:38:07;99800.91;;;10.57;30.57
37291;BME280;23175;-33.706;151.094;2023-05-08T01:40:46;99802.04;;;10.93;30.32
37291;BME280;23175;-33.706;151.094;2023-05-08T01:43:25;99805.39;;;10.24;31.29
37291;BME280;23175;-33.706;151.094;2023-05-08T01:46:01;99811.31;;;8.83;31.94
37291;BME280;23175;-33.706;151.094;2023-05-08T01:48:38;99809.57;;;9.93;30.45
37291;BME280;23175;-33.706;151.094;2023-05-08T01:51:16;99816.17;;;9.58;31.32
37291;BME280;23175;-33.706;151.094;2023-05-08T01:53:51;99822.86;;;9.47;31.34
37291;BME280;23175;-33.706;151.094;2023-05-08T01:56:24;99825.36;;;9.46;32.35
37291;BME280;23175;-33.706;151.094;2023-05-08T01:58:57;99816.96;;;9.64;32.92
37291;BME280;23175;-33.706;151.094;2023-05-08T02:01:32;99817.60;;;10.04;32.50
37291;BME280;23175;-33.706;151.094;2023-05-08T02:04:03;99817.10;;;10.00;31.54
37291;BME280;23175;-33.706;151.094;2023-05-08T02:06:35;99813.32;;;11.36;30.28
37291;BME280;23175;-33.706;151.094;2023-05-08T02:09:08;99815.87;;;11.16;30.54
37291;BME280;23175;-33.706;151.094;2023-05-08T02:11:40;99816.34;;;9.57;32.57
37291;BME280;23175;-33.706;151.094;2023-05-08T02:14:13;99807.49;;;11.44;30.64
37291;BME280;23175;-33.706;151.094;2023-05-08T02:16:45;99808.10;;;9.93;31.40
37291;BME280;23175;-33.706;151.094;2023-05-08T02:19:17;99812.18;;;10.57;30.64
37291;BME280;23175;-33.706;151.094;2023-05-08T02:21:49;99809.49;;;9.79;31.13
37291;BME280;23175;-33.706;151.094;2023-05-08T02:24:20;99808.39;;;9.26;32.29
37291;BME280;23175;-33.706;151.094;2023-05-08T02:26:53;99814.52;;;9.68;32.55
37291;BME280;23175;-33.706;151.094;2023-05-08T02:29:25;99808.33;;;10.30;31.21
37291;BME280;23175;-33.706;151.094;2023-05-08T02:31:57;99793.23;;;11.39;30.78
37291;BME280;23175;-33.706;151.094;2023-05-08T02:34:30;99795.49;;;8.96;32.33
37291;BME280;23175;-33.706;151.094;2023-05-08T02:37:00;99790.19;;;10.57;31.66
37291;BME280;23175;-33.706;151.094;2023-05-08T02:39:32;99781.17;;;9.69;32.23
37291;BME280;23175;-33.706;151.094;2023-05-08T02:42:04;99773.45;;;10.41;31.11
37291;BME280;23175;-33.706;151.094;2023-05-08T02:44:34;99786.47;;;8.49;34.19
37291;BME280;23175;-33.706;151.094;2023-05-08T02:47:12;99777.13;;;8.38;33.58
37291;BME280;23175;-33.706;151.094;2023-05-08T02:49:47;99773.18;;;10.68;31.44
37291;BME280;23175;-33.706;151.094;2023-05-08T02:52:26;99785.05;;;8.74;34.13
37291;BME280;23175;-33.706;151.094;2023-05-08T02:55:00;99778.90;;;10.14;31.95
37291;BME280;23175;-33.706;151.094;2023-05-08T02:57:38;99779.99;;;9.65;32.79
37291;BME280;23175;-33.706;151.094;2023-05-08T03:00:15;99771.54;;;11.31;30.92
37291;BME280;23175;-33.706;151.094;2023-05-08T03:02:49;99773.35;;;10.93;31.13
37291;BME280;23175;-33.706;151.094;2023-05-08T03:05:27;99785.58;;;9.10;32.93
37291;BME280;23175;-33.706;151.094;2023-05-08T03:08:01;99790.49;;;10.50;31.07
37291;BME280;23175;-33.706;151.094;2023-05-08T03:10:35;99786.01;;;8.55;33.02
37291;BME280;23175;-33.706;151.094;2023-05-08T03:13:07;99787.96;;;9.81;32.73
37291;BME280;23175;-33.706;151.094;2023-05-08T03:15:43;99780.27;;;9.96;32.36
37291;BME280;23175;-33.706;151.094;2023-05-08T03:18:18;99777.73;;;8.61;32.96
37291;BME280;23175;-33.706;151.094;2023-05-08T03:20:53;99770.33;;;9.30;32.31
37291;BME280;23175;-33.706;151.094;2023-05-08T03:23:25;99767.95;;;9.81;33.50
37291;BME280;23175;-33.706;151.094;2023-05-08T03:25:58;99767.73;;;8.28;34.25
37291;BME280;23175;-33.706;151.094;2023-05-08T03:28:31;99769.55;;;9.36;33.11
37291;BME280;23175;-33.706;151.094;2023-05-08T03:31:01;99777.47;;;9.20;33.50
37291;BME280;23175;-33.706;151.094;2023-05-08T03:33:34;99763.65;;;9.31;33.38
37291;BME280;23175;-33.706;151.094;2023-05-08T03:36:06;99765.68;;;9.37;32.30
37291;BME280;23175;-33.706;151.094;2023-05-08T03:38:37;99768.29;;;8.94;32.94
37291;BME280;23175;-33.706;151.094;2023-05-08T03:41:07;99761.36;;;11.39;30.78
37291;BME280;23175;-33.706;151.094;2023-05-08T03:43:39;99764.55;;;10.80;33.22
37291;BME280;23175;-33.706;151.094;2023-05-08T03:46:10;99749.38;;;9.98;31.98
37291;BME280;23175;-33.706;151.094;2023-05-08T03:48:41;99745.39;;;11.23;32.20
37291;BME280;23175;-33.706;151.094;2023-05-08T03:51:12;99739.82;;;10.12;32.52
37291;BME280;23175;-33.706;151.094;2023-05-08T03:53:44;99740.91;;;9.35;33.93
37291;BME280;23175;-33.706;151.094;2023-05-08T03:56:14;99742.47;;;10.91;30.76
37291;BME280;23175;-33.706;151.094;2023-05-08T03:58:59;99752.26;;;9.95;31.98
37291;BME280;23175;-33.706;151.094;2023-05-08T04:01:36;99759.12;;;11.01;30.54
37291;BME280;23175;-33.706;151.094;2023-05-08T04:04:11;99761.21;;;11.91;29.10
37291;BME280;23175;-33.706;151.094;2023-05-08T04:06:48;99770.04;;;10.21;30.32
37291;BME280;23175;-33.706;151.094;2023-05-08T04:09:22;99771.29;;;10.85;30.17
37291;BME280;23175;-33.706;151.094;2023-05-08T04:12:01;99772.28;;;11.12;30.13
37291;BME280;23175;-33.706;151.094;2023-05-08T04:14:48;99775.75;;;9.35;31.91
37291;BME280;23175;-33.706;151.094;2023-05-08T04:17:27;99776.01;;;10.66;31.49
37291;BME280;23175;-33.706;151.094;2023-05-08T04:20:05;99773.87;;;10.82;30.78
37291;BME280;23175;-33.706;151.094;2023-05-08T04:22:36;99773.48;;;9.87;31.11
37291;BME280;23175;-33.706;151.094;2023-05-08T04:25:09;99777.88;;;9.23;31.77
37291;BME280;23175;-33.706;151.094;2023-05-08T04:27:40;99777.05;;;11.06;30.05
37291;BME280;23175;-33.706;151.094;2023-05-08T04:30:11;99781.09;;;11.43;29.26
37291;BME280;23175;-33.706;151.094;2023-05-08T04:32:42;99788.06;;;11.49;28.09
37291;BME280;23175;-33.706;151.094;2023-05-08T04:35:14;99795.14;;;12.11;27.37
37291;BME280;23175;-33.706;151.094;2023-05-08T04:37:44;99798.13;;;11.28;27.55
37291;BME280;23175;-33.706;151.094;2023-05-08T04:40:14;99795.70;;;11.42;27.16
37291;BME280;23175;-33.706;151.094;2023-05-08T04:42:44;99792.33;;;9.20;28.57
37291;BME280;23175;-33.706;151.094;2023-05-08T04:45:14;99799.45;;;9.67;27.71
37291;BME280;23175;-33.706;151.094;2023-05-08T04:47:45;99794.24;;;8.53;28.30
37291;BME280;23175;-33.706;151.094;2023-05-08T04:50:14;99796.65;;;9.24;29.19
37291;BME280;23175;-33.706;151.094;2023-05-08T04:52:44;99800.56;;;10.00;28.57
37291;BME280;23175;-33.706;151.094;2023-05-08T04:55:14;99806.61;;;11.28;27.50
37291;BME280;23175;-33.706;151.094;2023-05-08T04:57:44;99804.41;;;10.24;27.95
37291;BME280;23175;-33.706;151.094;2023-05-08T05:00:14;99814.32;;;9.99;28.15
37291;BME280;23175;-33.706;151.094;2023-05-08T05:02:44;99806.17;;;9.57;28.07
37291;BME280;23175;-33.706;151.094;2023-05-08T05:05:14;99806.61;;;10.00;27.28
37291;BME280;23175;-33.706;151.094;2023-05-08T05:07:44;99806.50;;;12.10;26.02
37291;BME280;23175;-33.706;151.094;2023-05-08T05:10:14;99805.30;;;10.34;28.84
37291;BME280;23175;-33.706;151.094;2023-05-08T05:12:43;99801.81;;;11.36;26.89
37291;BME280;23175;-33.706;151.094;2023-05-08T05:15:13;99802.50;;;10.15;27.25
37291;BME280;23175;-33.706;151.094;2023-05-08T05:17:44;99806.44;;;10.19;27.61
37291;BME280;23175;-33.706;151.094;2023-05-08T05:20:14;99813.94;;;11.75;25.94
37291;BME280;23175;-33.706;151.094;2023-05-08T05:22:44;99820.31;;;9.26;27.59
37291;BME280;23175;-33.706;151.094;2023-05-08T05:25:14;99817.76;;;10.35;27.41
37291;BME280;23175;-33.706;151.094;2023-05-08T05:27:45;99820.21;;;12.09;26.17
37291;BME280;23175;-33.706;151.094;2023-05-08T05:30:15;99822.02;;;11.13;26.19
37291;BME280;23175;-33.706;151.094;2023-05-08T05:32:45;99825.05;;;9.35;27.27
37291;BME280;23175;-33.706;151.094;2023-05-08T05:35:15;99820.46;;;10.54;26.04
37291;BME280;23175;-33.706;151.094;2023-05-08T05:37:45;99813.15;;;12.05;25.87
37291;BME280;23175;-33.706;151.094;2023-05-08T05:40:15;99817.94;;;11.38;26.12
37291;BME280;23175;-33.706;151.094;2023-05-08T05:42:49;99814.57;;;13.75;23.80
37291;BME280;23175;-33.706;151.094;2023-05-08T05:45:19;99818.60;;;10.54;26.81
37291;BME280;23175;-33.706;151.094;2023-05-08T05:47:49;99822.01;;;10.09;26.34
37291;BME280;23175;-33.706;151.094;2023-05-08T05:50:19;99827.19;;;10.29;27.04
37291;BME280;23175;-33.706;151.094;2023-05-08T05:52:50;99833.31;;;10.94;26.55
37291;BME280;23175;-33.706;151.094;2023-05-08T05:55:19;99833.07;;;9.63;29.92
37291;BME280;23175;-33.706;151.094;2023-05-08T05:57:50;99839.86;;;12.38;28.03
37291;BME280;23175;-33.706;151.094;2023-05-08T06:00:21;99841.60;;;9.73;31.36
37291;BME280;23175;-33.706;151.094;2023-05-08T06:02:51;99848.72;;;9.92;31.60
37291;BME280;23175;-33.706;151.094;2023-05-08T06:05:21;99841.38;;;11.18;30.51
37291;BME280;23175;-33.706;151.094;2023-05-08T06:07:51;99842.18;;;10.87;30.55
37291;BME280;23175;-33.706;151.094;2023-05-08T06:10:21;99854.38;;;10.77;31.05
37291;BME280;23175;-33.706;151.094;2023-05-08T06:12:51;99861.40;;;9.73;31.49
37291;BME280;23175;-33.706;151.094;2023-05-08T06:15:21;99870.04;;;9.83;32.58
37291;BME280;23175;-33.706;151.094;2023-05-08T06:17:52;99862.39;;;10.85;31.27
37291;BME280;23175;-33.706;151.094;2023-05-08T06:20:23;99864.89;;;12.23;29.88
37291;BME280;23175;-33.706;151.094;2023-05-08T06:22:58;99866.01;;;11.38;31.14
37291;BME280;23175;-33.706;151.094;2023-05-08T06:25:28;99872.82;;;8.74;32.57
37291;BME280;23175;-33.706;151.094;2023-05-08T06:27:57;99874.94;;;9.68;32.31
37291;BME280;23175;-33.706;151.094;2023-05-08T06:30:28;99880.00;;;11.61;30.63
37291;BME280;23175;-33.706;151.094;2023-05-08T06:32:59;99884.79;;;11.05;31.69
37291;BME280;23175;-33.706;151.094;2023-05-08T06:35:29;99888.78;;;9.14;33.35
37291;BME280;23175;-33.706;151.094;2023-05-08T06:37:59;99886.49;;;11.12;31.28
37291;BME280;23175;-33.706;151.094;2023-05-08T06:40:30;99884.22;;;10.96;31.21
37291;BME280;23175;-33.706;151.094;2023-05-08T06:43:01;99889.14;;;10.75;32.10
37291;BME280;23175;-33.706;151.094;2023-05-08T06:45:31;99890.47;;;10.59;31.44
37291;BME280;23175;-33.706;151.094;2023-05-08T06:48:02;99888.91;;;9.54;32.93
37291;BME280;23175;-33.706;151.094;2023-05-08T06:50:36;99896.07;;;9.78;32.93
37291;BME280;23175;-33.706;151.094;2023-05-08T06:53:06;99892.88;;;10.04;32.23
37291;BME280;23175;-33.706;151.094;2023-05-08T06:55:37;99893.88;;;10.27;31.98
37291;BME280;23175;-33.706;151.094;2023-05-08T06:58:08;99894.43;;;10.94;31.86
37291;BME280;23175;-33.706;151.094;2023-05-08T07:00:39;99901.82;;;9.27;33.88
37291;BME280;23175;-33.706;151.094;2023-05-08T07:03:10;99899.32;;;8.39;35.19
37291;BME280;23175;-33.706;151.094;2023-05-08T07:05:42;99903.53;;;9.45;33.01
37291;BME280;23175;-33.706;151.094;2023-05-08T07:08:12;99908.19;;;10.59;31.99
37291;BME280;23175;-33.706;151.094;2023-05-08T07:10:43;99914.25;;;11.14;31.80
37291;BME280;23175;-33.706;151.094;2023-05-08T07:13:14;99912.59;;;11.53;32.16
37291;BME280;23175;-33.706;151.094;2023-05-08T07:15:45;99916.68;;;12.13;30.76
37291;BME280;23175;-33.706;151.094;2023-05-08T07:18:17;99924.70;;;10.66;31.52
37291;BME280;23175;-33.706;151.094;2023-05-08T07:20:49;99935.86;;;13.05;29.83
37291;BME280;23175;-33.706;151.094;2023-05-08T07:23:19;99941.24;;;11.07;31.36
37291;BME280;23175;-33.706;151.094;2023-05-08T07:25:50;99941.54;;;13.87;30.14
37291;BME280;23175;-33.706;151.094;2023-05-08T07:28:21;99943.46;;;13.58;29.92
37291;BME280;23175;-33.706;151.094;2023-05-08T07:30:52;99942.37;;;13.26;30.47
37291;BME280;23175;-33.706;151.094;2023-05-08T07:33:23;99942.27;;;13.52;28.26
37291;BME280;23175;-33.706;151.094;2023-05-08T07:35:54;99939.44;;;12.02;30.66
37291;BME280;23175;-33.706;151.094;2023-05-08T07:38:24;99935.56;;;10.80;31.51
37291;BME280;23175;-33.706;151.094;2023-05-08T07:40:55;99936.62;;;14.49;28.51
37291;BME280;23175;-33.706;151.094;2023-05-08T07:43:31;99938.55;;;15.44;27.33
37291;BME280;23175;-33.706;151.094;2023-05-08T07:46:02;99948.72;;;15.19;27.71
37291;BME280;23175;-33.706;151.094;2023-05-08T07:48:32;99949.65;;;15.56;27.60
37291;BME280;23175;-33.706;151.094;2023-05-08T07:51:03;99951.31;;;15.15;28.23
37291;BME280;23175;-33.706;151.094;2023-05-08T07:53:34;99956.65;;;15.35;28.36
37291;BME280;23175;-33.706;151.094;2023-05-08T07:56:05;99955.64;;;11.33;32.28
37291;BME280;23175;-33.706;151.094;2023-05-08T07:58:35;99960.23;;;13.60;31.50
37291;BME280;23175;-33.706;151.094;2023-05-08T08:01:06;99965.48;;;11.72;33.19
37291;BME280;23175;-33.706;151.094;2023-05-08T08:03:37;99962.88;;;14.30;30.62
37291;BME280;23175;-33.706;151.094;2023-05-08T08:06:08;99961.67;;;14.51;30.70
37291;BME280;23175;-33.706;151.094;2023-05-08T08:08:40;99961.52;;;13.20;31.32
37291;BME280;23175;-33.706;151.094;2023-05-08T08:11:10;99968.75;;;14.73;29.64
37291;BME280;23175;-33.706;151.094;2023-05-08T08:13:41;99974.71;;;14.64;29.40
37291;BME280;23175;-33.706;151.094;2023-05-08T08:16:12;99967.49;;;14.48;29.96
37291;BME280;23175;-33.706;151.094;2023-05-08T08:18:43;99965.74;;;14.99;30.27
37291;BME280;23175;-33.706;151.094;2023-05-08T08:21:14;99970.33;;;14.97;30.05
37291;BME280;23175;-33.706;151.094;2023-05-08T08:23:45;99975.00;;;14.00;31.05
37291;BME280;23175;-33.706;151.094;2023-05-08T08:26:15;99979.95;;;14.23;31.23
37291;BME280;23175;-33.706;151.094;2023-05-08T08:28:46;99988.95;;;13.94;31.83
37291;BME280;23175;-33.706;151.094;2023-05-08T08:31:17;99995.02;;;11.23;33.84
37291;BME280;23175;-33.706;151.094;2023-05-08T08:33:47;99997.70;;;10.77;35.40
37291;BME280;23175;-33.706;151.094;2023-05-08T08:36:18;100005.61;;;10.21;34.65
37291;BME280;23175;-33.706;151.094;2023-05-08T08:38:49;100006.53;;;9.56;35.57
37291;BME280;23175;-33.706;151.094;2023-05-08T08:41:20;100014.07;;;12.42;32.34
37291;BME280;23175;-33.706;151.094;2023-05-08T08:43:50;100019.94;;;8.93;36.53
37291;BME280;23175;-33.706;151.094;2023-05-08T08:46:25;100027.01;;;7.79;38.14
37291;BME280;23175;-33.706;151.094;2023-05-08T08:48:57;100029.65;;;9.98;35.22
37291;BME280;23175;-33.706;151.094;2023-05-08T08:51:30;100036.28;;;8.83;35.99
37291;BME280;23175;-33.706;151.094;2023-05-08T08:54:05;100042.20;;;11.76;32.49
37291;BME280;23175;-33.706;151.094;2023-05-08T08:56:39;100048.51;;;8.29;37.09
37291;BME280;23175;-33.706;151.094;2023-05-08T08:59:10;100045.73;;;12.04;32.44
37291;BME280;23175;-33.706;151.094;2023-05-08T09:01:46;100047.71;;;10.33;34.45
37291;BME280;23175;-33.706;151.094;2023-05-08T09:04:17;100048.08;;;10.01;35.01
37291;BME280;23175;-33.706;151.094;2023-05-08T09:06:50;100049.29;;;8.85;36.17
37291;BME280;23175;-33.706;151.094;2023-05-08T09:09:20;100048.99;;;9.19;36.18
37291;BME280;23175;-33.706;151.094;2023-05-08T09:11:52;100051.88;;;10.18;34.87
37291;BME280;23175;-33.706;151.094;2023-05-08T09:14:23;100055.07;;;11.92;33.22
37291;BME280;23175;-33.706;151.094;2023-05-08T09:16:55;100059.61;;;11.25;34.35
37291;BME280;23175;-33.706;151.094;2023-05-08T09:19:26;100060.23;;;11.75;33.28
37291;BME280;23175;-33.706;151.094;2023-05-08T09:22:01;100060.26;;;10.32;34.70
37291;BME280;23175;-33.706;151.094;2023-05-08T09:24:55;100064.44;;;7.67;37.90
37291;BME280;23175;-33.706;151.094;2023-05-08T09:27:27;100067.57;;;8.54;36.84
37291;BME280;23175;-33.706;151.094;2023-05-08T09:30:03;100072.11;;;7.91;36.86
37291;BME280;23175;-33.706;151.094;2023-05-08T09:32:36;100078.91;;;10.16;34.81
37291;BME280;23175;-33.706;151.094;2023-05-08T09:35:09;100087.47;;;6.45;39.66
37291;BME280;23175;-33.706;151.094;2023-05-08T09:37:41;100075.75;;;9.73;35.87
37291;BME280;23175;-33.706;151.094;2023-05-08T09:40:17;100086.47;;;8.07;38.10
37291;BME280;23175;-33.706;151.094;2023-05-08T09:42:50;100087.40;;;9.75;36.14
37291;BME280;23175;-33.706;151.094;2023-05-08T09:45:29;100093.11;;;9.55;36.09
37291;BME280;23175;-33.706;151.094;2023-05-08T09:48:00;100099.78;;;6.79;38.52
37291;BME280;23175;-33.706;151.094;2023-05-08T09:50:30;100102.87;;;8.40;37.61
37291;BME280;23175;-33.706;151.094;2023-05-08T09:53:00;100106.49;;;9.04;36.04
37291;BME280;23175;-33.706;151.094;2023-05-08T09:55:46;100112.17;;;8.99;36.65
37291;BME280;23175;-33.706;151.094;2023-05-08T09:58:17;100115.36;;;8.11;38.01
37291;BME280;23175;-33.706;151.094;2023-05-08T10:00:48;100120.20;;;7.87;37.82
37291;BME280;23175;-33.706;151.094;2023-05-08T10:03:18;100113.56;;;9.83;35.76
37291;BME280;23175;-33.706;151.094;2023-05-08T10:05:50;100116.34;;;10.95;34.61
37291;BME280;23175;-33.706;151.094;2023-05-08T10:08:22;100119.97;;;7.73;39.47
37291;BME280;23175;-33.706;151.094;2023-05-08T10:10:52;100120.53;;;6.93;39.21
37291;BME280;23175;-33.706;151.094;2023-05-08T10:13:22;100123.03;;;8.73;37.53
37291;BME280;23175;-33.706;151.094;2023-05-08T10:15:55;100121.27;;;8.02;38.10
37291;BME280;23175;-33.706;151.094;2023-05-08T10:18:30;100130.51;;;8.33;38.44
37291;BME280;23175;-33.706;151.094;2023-05-08T10:21:05;100130.56;;;6.96;40.09
37291;BME280;23175;-33.706;151.094;2023-05-08T10:23:38;100139.33;;;7.47;39.09
37291;BME280;23175;-33.706;151.094;2023-05-08T10:26:15;100137.95;;;9.89;36.35
37291;BME280;23175;-33.706;151.094;2023-05-08T10:28:53;100142.77;;;11.35;34.36
37291;BME280;23175;-33.706;151.094;2023-05-08T10:31:30;100140.12;;;9.79;36.01
37291;BME280;23175;-33.706;151.094;2023-05-08T10:34:04;100145.61;;;10.61;35.33
37291;BME280;23175;-33.706;151.094;2023-05-08T10:36:36;100147.92;;;8.27;38.70
37291;BME280;23175;-33.706;151.094;2023-05-08T10:39:08;100152.76;;;10.40;35.60
37291;BME280;23175;-33.706;151.094;2023-05-08T10:41:42;100149.66;;;9.10;36.91
37291;BME280;23175;-33.706;151.094;2023-05-08T10:44:13;100149.47;;;8.22;37.61
37291;BME280;23175;-33.706;151.094;2023-05-08T10:46:51;100148.88;;;8.27;37.66
37291;BME280;23175;-33.706;151.094;2023-05-08T10:49:30;100145.67;;;8.24;37.74
37291;BME280;23175;-33.706;151.094;2023-05-08T10:52:14;100148.65;;;9.40;37.47
37291;BME280;23175;-33.706;151.094;2023-05-08T10:55:21;100150.66;;;10.11;36.75
37291;BME280;23175;-33.706;151.094;2023-05-08T10:58:11;100153.17;;;9.12;37.63
37291;BME280;23175;-33.706;151.094;2023-05-08T11:01:16;100151.72;;;10.94;35.63
37291;BME280;23175;-33.706;151.094;2023-05-08T11:03:48;100153.82;;;7.99;38.81
37291;BME280;23175;-33.706;151.094;2023-05-08T11:06:41;100158.87;;;9.02;36.91
37291;BME280;23175;-33.706;151.094;2023-05-08T11:09:20;100154.39;;;9.67;36.43
37291;BME280;23175;-33.706;151.094;2023-05-08T11:12:14;100154.06;;;7.32;38.79
37291;BME280;23175;-33.706;151.094;2023-05-08T11:15:00;100154.92;;;8.12;38.82
37291;BME280;23175;-33.706;151.094;2023-05-08T11:17:31;100158.04;;;8.18;38.14
37291;BME280;23175;-33.706;151.094;2023-05-08T11:20:03;100161.70;;;6.39;40.18
37291;BME280;23175;-33.706;151.094;2023-05-08T11:22:35;100162.60;;;7.05;40.04
37291;BME280;23175;-33.706;151.094;2023-05-08T11:25:08;100157.81;;;9.19;37.85
37291;BME280;23175;-33.706;151.094;2023-05-08T11:30:40;100160.03;;;10.67;35.94
37291;BME280;23175;-33.706;151.094;2023-05-08T11:33:18;100161.13;;;6.37;40.54
37291;BME280;23175;-33.706;151.094;2023-05-08T11:35:56;100154.34;;;9.94;36.25
37291;BME280;23175;-33.706;151.094;2023-05-08T11:38:30;100152.17;;;8.48;37.50
37291;BME280;23175;-33.706;151.094;2023-05-08T11:41:04;100155.84;;;8.30;38.09
37291;BME280;23175;-33.706;151.094;2023-05-08T11:43:57;100149.71;;;8.43;37.81
37291;BME280;23175;-33.706;151.094;2023-05-08T11:46:40;100151.63;;;7.44;39.45
37291;BME280;23175;-33.706;151.094;2023-05-08T11:49:15;100147.20;;;11.59;33.83
37291;BME280;23175;-33.706;151.094;2023-05-08T11:51:48;100147.28;;;8.74;36.48
37291;BME280;23175;-33.706;151.094;2023-05-08T11:54:21;100150.77;;;9.52;36.60
37291;BME280;23175;-33.706;151.094;2023-05-08T11:56:53;100152.66;;;7.99;38.14
37291;BME280;23175;-33.706;151.094;2023-05-08T11:59:33;100159.03;;;6.35;41.47
37291;BME280;23175;-33.706;151.094;2023-05-08T12:02:04;100157.54;;;7.39;39.72
37291;BME280;23175;-33.706;151.094;2023-05-08T12:04:43;100148.05;;;8.56;38.46
37291;BME280;23175;-33.706;151.094;2023-05-08T12:07:14;100150.19;;;7.35;40.03
37291;BME280;23175;-33.706;151.094;2023-05-08T12:09:46;100147.23;;;8.39;38.32
37291;BME280;23175;-33.706;151.094;2023-05-08T12:12:18;100141.22;;;8.95;38.80
37291;BME280;23175;-33.706;151.094;2023-05-08T12:14:53;100136.84;;;8.05;39.40
37291;BME280;23175;-33.706;151.094;2023-05-08T12:17:24;100139.14;;;8.59;38.60
37291;BME280;23175;-33.706;151.094;2023-05-08T12:19:56;100138.83;;;8.64;37.86
37291;BME280;23175;-33.706;151.094;2023-05-08T12:22:39;100142.32;;;8.39;39.09
37291;BME280;23175;-33.706;151.094;2023-05-08T12:25:11;100133.15;;;10.28;37.00
37291;BME280;23175;-33.706;151.094;2023-05-08T12:27:43;100133.75;;;10.82;35.94
37291;BME280;23175;-33.706;151.094;2023-05-08T12:30:15;100131.37;;;9.75;36.74
37291;BME280;23175;-33.706;151.094;2023-05-08T12:32:47;100130.02;;;10.48;35.71
37291;BME280;23175;-33.706;151.094;2023-05-08T12:35:18;100131.67;;;7.71;39.64
37291;BME280;23175;-33.706;151.094;2023-05-08T12:37:51;100132.88;;;7.74;39.23
37291;BME280;23175;-33.706;151.094;2023-05-08T12:40:29;100136.35;;;9.67;37.52
37291;BME280;23175;-33.706;151.094;2023-05-08T12:43:02;100138.73;;;10.91;35.52
37291;BME280;23175;-33.706;151.094;2023-05-08T12:45:34;100138.58;;;10.90;36.06
37291;BME280;23175;-33.706;151.094;2023-05-08T12:48:07;100140.05;;;9.23;37.52
37291;BME280;23175;-33.706;151.094;2023-05-08T12:50:40;100140.11;;;9.09;38.34
37291;BME280;23175;-33.706;151.094;2023-05-08T12:53:12;100144.75;;;8.78;38.13
37291;BME280;23175;-33.706;151.094;2023-05-08T12:55:52;100143.08;;;8.21;39.64
37291;BME280;23175;-33.706;151.094;2023-05-08T12:58:26;100144.54;;;11.07;36.07
37291;BME280;23175;-33.706;151.094;2023-05-08T13:01:06;100144.99;;;9.13;38.52
37291;BME280;23175;-33.706;151.094;2023-05-08T13:03:39;100137.79;;;8.40;39.29
37291;BME280;23175;-33.706;151.094;2023-05-08T13:06:20;100140.70;;;9.16;38.55
37291;BME280;23175;-33.706;151.094;2023-05-08T13:08:54;100138.08;;;10.53;36.89
37291;BME280;23175;-33.706;151.094;2023-05-08T13:11:33;100146.26;;;7.69;40.05